sensor_id;sensor_type;location;lat;lon;timestamp;P1;durP1;ratioP1;P2;durP2;ratioP2
16977;SDS011;8605;52.548;4.918;2023-08-31T00:04:21;0.80;;;0.40;;
16977;SDS011;8605;52.548;4.918;2023-08-31T00:09:24;1.80;;;0.82;;
16977;SDS011;8605;52.548;4.918;2023-08-31T00:14:27;3.00;;;0.60;;
16977;SDS011;8605;52.548;4.918;2023-08-31T00:19:32;1.52;;;0.70;;
16977;SDS011;8605;52.548;4.918;2023-08-31T00:24:35;2.85;;;0.90;;
16977;SDS011;8605;52.548;4.918;2023-08-31T00:29:38;3.58;;;1.23;;
16977;SDS011;8605;52.548;4.918;2023-08-31T00:34:42;1.38;;;0.50;;
16977;SDS011;8605;52.548;4.918;2023-08-31T00:39:45;1.40;;;0.60;;
16977;SDS011;8605;52.548;4.918;2023-08-31T00:44:48;3.03;;;0.75;;
16977;SDS011;8605;52.548;4.918;2023-08-31T00:50:16;3.35;;;0.80;;
16977;SDS011;8605;52.548;4.918;2023-08-31T00:55:20;3.28;;;0.70;;
16977;SDS011;8605;52.548;4.918;2023-08-31T01:00:24;2.22;;;1.15;;
16977;SDS011;8605;52.548;4.918;2023-08-31T01:05:33;1.52;;;0.90;;
16977;SDS011;8605;52.548;4.918;2023-08-31T01:10:43;2.63;;;0.93;;
16977;SDS011;8605;52.548;4.918;2023-08-31T01:15:52;0.95;;;0.70;;
16977;SDS011;8605;52.548;4.918;2023-08-31T01:21:00;5.68;;;1.20;;
16977;SDS011;8605;52.548;4.918;2023-08-31T01:26:06;2.00;;;1.05;;
16977;SDS011;8605;52.548;4.918;2023-08-31T01:31:10;2.08;;;0.70;;
16977;SDS011;8605;52.548;4.918;2023-08-31T01:36:16;1.20;;;0.93;;
16977;SDS011;8605;52.548;4.918;2023-08-31T01:41:23;1.23;;;0.70;;
16977;SDS011;8605;52.548;4.918;2023-08-31T01:46:27;2.80;;;0.90;;
16977;SDS011;8605;52.548;4.918;2023-08-31T01:51:30;3.47;;;0.73;;
16977;SDS011;8605;52.548;4.918;2023-08-31T01:56:35;1.90;;;1.10;;
16977;SDS011;8605;52.548;4.918;2023-08-31T02:01:38;4.43;;;1.47;;
16977;SDS011;8605;52.548;4.918;2023-08-31T02:06:41;0.85;;;0.60;;
16977;SDS011;8605;52.548;4.918;2023-08-31T02:11:46;2.45;;;0.90;;
16977;SDS011;8605;52.548;4.918;2023-08-31T02:16:49;5.10;;;1.10;;
16977;SDS011;8605;52.548;4.918;2023-08-31T02:21:52;3.03;;;1.25;;
16977;SDS011;8605;52.548;4.918;2023-08-31T02:26:57;1.20;;;0.70;;
16977;SDS011;8605;52.548;4.918;2023-08-31T02:32:03;1.13;;;0.60;;
16977;SDS011;8605;52.548;4.918;2023-08-31T02:37:07;1.80;;;0.52;;
16977;SDS011;8605;52.548;4.918;2023-08-31T02:42:13;2.13;;;1.07;;
16977;SDS011;8605;52.548;4.918;2023-08-31T02:47:16;3.27;;;1.03;;
16977;SDS011;8605;52.548;4.918;2023-08-31T02:52:19;3.63;;;0.98;;
16977;SDS011;8605;52.548;4.918;2023-08-31T02:57:24;1.88;;;0.70;;
16977;SDS011;8605;52.548;4.918;2023-08-31T03:02:27;5.53;;;1.20;;
16977;SDS011;8605;52.548;4.918;2023-08-31T03:07:31;2.92;;;0.90;;
16977;SDS011;8605;52.548;4.918;2023-08-31T03:12:35;1.73;;;0.87;;
16977;SDS011;8605;52.548;4.918;2023-08-31T03:17:38;1.98;;;1.10;;
16977;SDS011;8605;52.548;4.918;2023-08-31T03:22:43;2.97;;;1.05;;
16977;SDS011;8605;52.548;4.918;2023-08-31T03:27:47;3.75;;;1.45;;
16977;SDS011;8605;52.548;4.918;2023-08-31T03:32:51;5.33;;;1.67;;
16977;SDS011;8605;52.548;4.918;2023-08-31T03:37:54;6.20;;;1.42;;
16977;SDS011;8605;52.548;4.918;2023-08-31T03:42:58;9.98;;;1.45;;
16977;SDS011;8605;52.548;4.918;2023-08-31T03:48:02;1.67;;;0.65;;
16977;SDS011;8605;52.548;4.918;2023-08-31T03:53:05;0.75;;;0.43;;
16977;SDS011;8605;52.548;4.918;2023-08-31T03:58:10;0.70;;;0.40;;
16977;SDS011;8605;52.548;4.918;2023-08-31T04:03:14;0.50;;;0.45;;
16977;SDS011;8605;52.548;4.918;2023-08-31T04:08:18;2.30;;;0.50;;
16977;SDS011;8605;52.548;4.918;2023-08-31T04:13:22;0.40;;;0.38;;
16977;SDS011;8605;52.548;4.918;2023-08-31T04:18:27;0.73;;;0.50;;
16977;SDS011;8605;52.548;4.918;2023-08-31T04:23:30;2.05;;;0.80;;
16977;SDS011;8605;52.548;4.918;2023-08-31T04:28:35;0.80;;;0.57;;
16977;SDS011;8605;52.548;4.918;2023-08-31T04:33:39;1.75;;;0.60;;
16977;SDS011;8605;52.548;4.918;2023-08-31T04:38:42;1.73;;;0.70;;
16977;SDS011;8605;52.548;4.918;2023-08-31T04:43:46;1.15;;;0.60;;
16977;SDS011;8605;52.548;4.918;2023-08-31T04:48:50;0.32;;;0.30;;
16977;SDS011;8605;52.548;4.918;2023-08-31T04:53:53;1.98;;;0.40;;
16977;SDS011;8605;52.548;4.918;2023-08-31T04:58:58;1.40;;;0.50;;
16977;SDS011;8605;52.548;4.918;2023-08-31T05:04:02;0.70;;;0.50;;
16977;SDS011;8605;52.548;4.918;2023-08-31T05:09:05;1.15;;;0.57;;
16977;SDS011;8605;52.548;4.918;2023-08-31T05:14:11;5.18;;;1.00;;
16977;SDS011;8605;52.548;4.918;2023-08-31T05:19:14;1.73;;;1.10;;
16977;SDS011;8605;52.548;4.918;2023-08-31T05:24:17;1.73;;;0.57;;
16977;SDS011;8605;52.548;4.918;2023-08-31T05:29:21;2.23;;;0.90;;
16977;SDS011;8605;52.548;4.918;2023-08-31T05:34:25;0.65;;;0.63;;
16977;SDS011;8605;52.548;4.918;2023-08-31T05:39:28;0.87;;;0.53;;
16977;SDS011;8605;52.548;4.918;2023-08-31T05:44:33;0.60;;;0.60;;
16977;SDS011;8605;52.548;4.918;2023-08-31T05:49:36;4.33;;;1.40;;
16977;SDS011;8605;52.548;4.918;2023-08-31T05:54:39;1.43;;;0.77;;
16977;SDS011;8605;52.548;4.918;2023-08-31T05:59:43;1.63;;;0.90;;
16977;SDS011;8605;52.548;4.918;2023-08-31T06:04:46;1.90;;;0.90;;
16977;SDS011;8605;52.548;4.918;2023-08-31T06:09:49;1.52;;;0.90;;
16977;SDS011;8605;52.548;4.918;2023-08-31T06:14:54;2.45;;;0.90;;
16977;SDS011;8605;52.548;4.918;2023-08-31T06:20:01;3.65;;;0.85;;
16977;SDS011;8605;52.548;4.918;2023-08-31T06:25:07;1.70;;;0.80;;
16977;SDS011;8605;52.548;4.918;2023-08-31T06:30:14;3.05;;;0.90;;
16977;SDS011;8605;52.548;4.918;2023-08-31T06:35:18;3.25;;;0.80;;
16977;SDS011;8605;52.548;4.918;2023-08-31T06:40:22;2.38;;;1.00;;
16977;SDS011;8605;52.548;4.918;2023-08-31T06:45:26;2.70;;;1.00;;
16977;SDS011;8605;52.548;4.918;2023-08-31T06:50:29;2.20;;;1.00;;
16977;SDS011;8605;52.548;4.918;2023-08-31T06:55:32;4.90;;;1.20;;
16977;SDS011;8605;52.548;4.918;2023-08-31T07:00:37;3.23;;;1.20;;
16977;SDS011;8605;52.548;4.918;2023-08-31T07:05:41;2.47;;;1.23;;
16977;SDS011;8605;52.548;4.918;2023-08-31T07:10:45;4.30;;;1.10;;
16977;SDS011;8605;52.548;4.918;2023-08-31T07:15:50;3.03;;;1.20;;
16977;SDS011;8605;52.548;4.918;2023-08-31T07:20:53;3.65;;;0.95;;
16977;SDS011;8605;52.548;4.918;2023-08-31T07:25:56;3.78;;;0.98;;
16977;SDS011;8605;52.548;4.918;2023-08-31T07:31:03;1.33;;;0.80;;
16977;SDS011;8605;52.548;4.918;2023-08-31T07:36:06;2.45;;;1.27;;
16977;SDS011;8605;52.548;4.918;2023-08-31T07:41:09;2.08;;;1.10;;
16977;SDS011;8605;52.548;4.918;2023-08-31T07:46:14;2.25;;;1.33;;
16977;SDS011;8605;52.548;4.918;2023-08-31T07:51:17;1.40;;;0.80;;
16977;SDS011;8605;52.548;4.918;2023-08-31T07:56:24;1.83;;;0.60;;
16977;SDS011;8605;52.548;4.918;2023-08-31T08:01:29;1.00;;;0.90;;
16977;SDS011;8605;52.548;4.918;2023-08-31T08:06:32;0.80;;;0.60;;
16977;SDS011;8605;52.548;4.918;2023-08-31T08:11:35;3.27;;;0.87;;
16977;SDS011;8605;52.548;4.918;2023-08-31T08:16:40;5.00;;;1.00;;
16977;SDS011;8605;52.548;4.918;2023-08-31T08:21:43;1.38;;;1.20;;
16977;SDS011;8605;52.548;4.918;2023-08-31T08:26:46;3.05;;;1.48;;
16977;SDS011;8605;52.548;4.918;2023-08-31T08:31:52;2.90;;;1.10;;
16977;SDS011;8605;52.548;4.918;2023-08-31T08:36:55;1.77;;;0.68;;
16977;SDS011;8605;52.548;4.918;2023-08-31T08:41:58;1.70;;;0.90;;
16977;SDS011;8605;52.548;4.918;2023-08-31T08:47:03;4.20;;;1.30;;
16977;SDS011;8605;52.548;4.918;2023-08-31T08:52:06;5.53;;;1.20;;
16977;SDS011;8605;52.548;4.918;2023-08-31T08:57:10;6.25;;;1.35;;
16977;SDS011;8605;52.548;4.918;2023-08-31T09:02:14;3.08;;;1.13;;
16977;SDS011;8605;52.548;4.918;2023-08-31T09:07:17;3.78;;;1.90;;
16977;SDS011;8605;52.548;4.918;2023-08-31T09:12:21;2.55;;;1.13;;
16977;SDS011;8605;52.548;4.918;2023-08-31T09:17:26;4.72;;;1.67;;
16977;SDS011;8605;52.548;4.918;2023-08-31T09:22:30;6.15;;;1.33;;
16977;SDS011;8605;52.548;4.918;2023-08-31T09:27:36;4.30;;;1.45;;
16977;SDS011;8605;52.548;4.918;2023-08-31T09:32:41;3.40;;;1.10;;
16977;SDS011;8605;52.548;4.918;2023-08-31T09:37:54;3.87;;;1.60;;
16977;SDS011;8605;52.548;4.918;2023-08-31T09:43:03;2.65;;;1.00;;
16977;SDS011;8605;52.548;4.918;2023-08-31T09:48:08;5.10;;;1.53;;
16977;SDS011;8605;52.548;4.918;2023-08-31T09:53:12;5.18;;;1.60;;
16977;SDS011;8605;52.548;4.918;2023-08-31T09:58:17;4.03;;;1.10;;
16977;SDS011;8605;52.548;4.918;2023-08-31T10:03:23;3.13;;;0.93;;
16977;SDS011;8605;52.548;4.918;2023-08-31T10:08:27;3.90;;;1.60;;
16977;SDS011;8605;52.548;4.918;2023-08-31T10:13:32;3.73;;;1.17;;
16977;SDS011;8605;52.548;4.918;2023-08-31T10:18:40;2.70;;;1.00;;
16977;SDS011;8605;52.548;4.918;2023-08-31T10:23:44;2.58;;;1.27;;
16977;SDS011;8605;52.548;4.918;2023-08-31T10:28:47;2.70;;;1.08;;
16977;SDS011;8605;52.548;4.918;2023-08-31T10:33:56;4.72;;;1.63;;
16977;SDS011;8605;52.548;4.918;2023-08-31T10:39:00;4.30;;;1.40;;
16977;SDS011;8605;52.548;4.918;2023-08-31T10:44:17;1.90;;;1.00;;
16977;SDS011;8605;52.548;4.918;2023-08-31T10:49:22;2.88;;;0.93;;
16977;SDS011;8605;52.548;4.918;2023-08-31T10:54:30;4.28;;;2.15;;
16977;SDS011;8605;52.548;4.918;2023-08-31T10:59:43;2.40;;;1.40;;
16977;SDS011;8605;52.548;4.918;2023-08-31T11:04:55;5.72;;;1.10;;
16977;SDS011;8605;52.548;4.918;2023-08-31T11:10:07;3.60;;;1.30;;
16977;SDS011;8605;52.548;4.918;2023-08-31T11:15:17;2.50;;;1.20;;
16977;SDS011;8605;52.548;4.918;2023-08-31T11:20:24;2.60;;;0.88;;
16977;SDS011;8605;52.548;4.918;2023-08-31T11:25:30;2.72;;;0.98;;
16977;SDS011;8605;52.548;4.918;2023-08-31T11:30:34;5.75;;;1.50;;
16977;SDS011;8605;52.548;4.918;2023-08-31T11:35:41;2.90;;;1.00;;
16977;SDS011;8605;52.548;4.918;2023-08-31T11:40:46;5.65;;;1.02;;
16977;SDS011;8605;52.548;4.918;2023-08-31T11:45:52;2.40;;;0.80;;
16977;SDS011;8605;52.548;4.918;2023-08-31T11:50:57;2.77;;;1.27;;
16977;SDS011;8605;52.548;4.918;2023-08-31T11:56:01;4.20;;;1.20;;
16977;SDS011;8605;52.548;4.918;2023-08-31T12:01:05;3.13;;;1.05;;
16977;SDS011;8605;52.548;4.918;2023-08-31T12:06:10;4.90;;;1.20;;
16977;SDS011;8605;52.548;4.918;2023-08-31T12:11:13;5.28;;;1.30;;
16977;SDS011;8605;52.548;4.918;2023-08-31T12:16:16;1.87;;;1.30;;
16977;SDS011;8605;52.548;4.918;2023-08-31T12:21:21;2.37;;;1.10;;
16977;SDS011;8605;52.548;4.918;2023-08-31T12:26:24;3.55;;;1.40;;
16977;SDS011;8605;52.548;4.918;2023-08-31T12:31:28;6.63;;;1.40;;
16977;SDS011;8605;52.548;4.918;2023-08-31T12:36:32;3.72;;;1.08;;
16977;SDS011;8605;52.548;4.918;2023-08-31T12:41:38;4.65;;;0.82;;
16977;SDS011;8605;52.548;4.918;2023-08-31T12:46:41;4.20;;;1.27;;
16977;SDS011;8605;52.548;4.918;2023-08-31T12:51:45;4.80;;;1.45;;
16977;SDS011;8605;52.548;4.918;2023-08-31T12:56:50;6.63;;;1.50;;
16977;SDS011;8605;52.548;4.918;2023-08-31T13:01:53;2.70;;;1.07;;
16977;SDS011;8605;52.548;4.918;2023-08-31T13:06:57;2.83;;;1.25;;
16977;SDS011;8605;52.548;4.918;2023-08-31T13:12:01;4.43;;;1.33;;
16977;SDS011;8605;52.548;4.918;2023-08-31T13:17:05;3.53;;;1.47;;
16977;SDS011;8605;52.548;4.918;2023-08-31T13:22:09;5.63;;;0.90;;
16977;SDS011;8605;52.548;4.918;2023-08-31T13:27:16;1.80;;;1.30;;
16977;SDS011;8605;52.548;4.918;2023-08-31T13:32:20;2.20;;;1.17;;
16977;SDS011;8605;52.548;4.918;2023-08-31T13:37:24;3.70;;;1.23;;
16977;SDS011;8605;52.548;4.918;2023-08-31T13:42:31;3.80;;;0.90;;
16977;SDS011;8605;52.548;4.918;2023-08-31T13:47:36;2.85;;;1.10;;
16977;SDS011;8605;52.548;4.918;2023-08-31T13:52:40;2.70;;;0.90;;
16977;SDS011;8605;52.548;4.918;2023-08-31T13:57:44;3.38;;;1.13;;
16977;SDS011;8605;52.548;4.918;2023-08-31T14:02:47;3.50;;;1.20;;
16977;SDS011;8605;52.548;4.918;2023-08-31T14:07:51;4.43;;;1.42;;
16977;SDS011;8605;52.548;4.918;2023-08-31T14:12:54;3.15;;;1.15;;
16977;SDS011;8605;52.548;4.918;2023-08-31T14:17:57;2.40;;;1.00;;
16977;SDS011;8605;52.548;4.918;2023-08-31T14:23:02;1.48;;;0.82;;
16977;SDS011;8605;52.548;4.918;2023-08-31T14:28:05;3.73;;;1.10;;
16977;SDS011;8605;52.548;4.918;2023-08-31T14:33:09;2.47;;;0.90;;
16977;SDS011;8605;52.548;4.918;2023-08-31T14:38:13;3.63;;;1.02;;
16977;SDS011;8605;52.548;4.918;2023-08-31T14:43:23;1.53;;;0.87;;
16977;SDS011;8605;52.548;4.918;2023-08-31T14:48:26;1.30;;;0.60;;
16977;SDS011;8605;52.548;4.918;2023-08-31T14:53:31;1.75;;;0.80;;
16977;SDS011;8605;52.548;4.918;2023-08-31T14:58:34;3.77;;;0.77;;
16977;SDS011;8605;52.548;4.918;2023-08-31T15:03:38;1.90;;;1.00;;
16977;SDS011;8605;52.548;4.918;2023-08-31T15:08:42;1.13;;;0.88;;
16977;SDS011;8605;52.548;4.918;2023-08-31T15:13:45;3.03;;;0.95;;
16977;SDS011;8605;52.548;4.918;2023-08-31T15:18:50;4.07;;;1.02;;
16977;SDS011;8605;52.548;4.918;2023-08-31T15:23:55;1.90;;;0.70;;
16977;SDS011;8605;52.548;4.918;2023-08-31T15:28:58;1.63;;;0.80;;
16977;SDS011;8605;52.548;4.918;2023-08-31T15:34:01;2.38;;;1.00;;
16977;SDS011;8605;52.548;4.918;2023-08-31T15:39:06;3.85;;;0.93;;
16977;SDS011;8605;52.548;4.918;2023-08-31T15:44:10;2.08;;;0.82;;
16977;SDS011;8605;52.548;4.918;2023-08-31T15:49:13;1.90;;;0.90;;
16977;SDS011;8605;52.548;4.918;2023-08-31T15:54:17;0.63;;;0.52;;
16977;SDS011;8605;52.548;4.918;2023-08-31T15:59:21;5.37;;;1.10;;
16977;SDS011;8605;52.548;4.918;2023-08-31T16:04:24;2.67;;;0.77;;
16977;SDS011;8605;52.548;4.918;2023-08-31T16:09:28;1.90;;;0.98;;
16977;SDS011;8605;52.548;4.918;2023-08-31T16:14:31;0.90;;;0.60;;
16977;SDS011;8605;52.548;4.918;2023-08-31T16:19:34;1.30;;;0.90;;
16977;SDS011;8605;52.548;4.918;2023-08-31T16:24:45;0.95;;;0.70;;
16977;SDS011;8605;52.548;4.918;2023-08-31T16:29:48;2.40;;;0.82;;
16977;SDS011;8605;52.548;4.918;2023-08-31T16:34:52;6.93;;;1.27;;
16977;SDS011;8605;52.548;4.918;2023-08-31T16:39:57;2.50;;;1.05;;
16977;SDS011;8605;52.548;4.918;2023-08-31T16:45:00;1.73;;;0.90;;
16977;SDS011;8605;52.548;4.918;2023-08-31T16:50:04;2.08;;;0.98;;
16977;SDS011;8605;52.548;4.918;2023-08-31T16:55:09;1.55;;;0.95;;
16977;SDS011;8605;52.548;4.918;2023-08-31T17:00:13;1.65;;;0.80;;
16977;SDS011;8605;52.548;4.918;2023-08-31T17:05:17;3.40;;;0.95;;
16977;SDS011;8605;52.548;4.918;2023-08-31T17:10:22;1.52;;;0.73;;
16977;SDS011;8605;52.548;4.918;2023-08-31T17:15:25;1.33;;;1.00;;
16977;SDS011;8605;52.548;4.918;2023-08-31T17:20:28;2.40;;;0.90;;
16977;SDS011;8605;52.548;4.918;2023-08-31T17:25:34;2.42;;;1.10;;
16977;SDS011;8605;52.548;4.918;2023-08-31T17:30:37;1.70;;;0.90;;
16977;SDS011;8605;52.548;4.918;2023-08-31T17:35:41;1.20;;;0.70;;
16977;SDS011;8605;52.548;4.918;2023-08-31T17:40:46;2.30;;;0.80;;
16977;SDS011;8605;52.548;4.918;2023-08-31T17:45:50;1.20;;;1.00;;
16977;SDS011;8605;52.548;4.918;2023-08-31T17:50:53;2.57;;;1.20;;
16977;SDS011;8605;52.548;4.918;2023-08-31T17:55:58;3.70;;;1.10;;
16977;SDS011;8605;52.548;4.918;2023-08-31T18:01:01;1.70;;;1.17;;
16977;SDS011;8605;52.548;4.918;2023-08-31T18:06:07;2.55;;;0.77;;
16977;SDS011;8605;52.548;4.918;2023-08-31T18:11:11;3.05;;;1.27;;
16977;SDS011;8605;52.548;4.918;2023-08-31T18:16:14;2.35;;;1.00;;
16977;SDS011;8605;52.548;4.918;2023-08-31T18:21:18;1.57;;;0.80;;
16977;SDS011;8605;52.548;4.918;2023-08-31T18:26:25;2.40;;;1.05;;
16977;SDS011;8605;52.548;4.918;2023-08-31T18:31:28;1.33;;;0.70;;
16977;SDS011;8605;52.548;4.918;2023-08-31T18:36:31;2.90;;;1.27;;
16977;SDS011;8605;52.548;4.918;2023-08-31T18:41:36;1.20;;;0.70;;
16977;SDS011;8605;52.548;4.918;2023-08-31T18:46:39;1.55;;;1.10;;
16977;SDS011;8605;52.548;4.918;2023-08-31T18:51:43;2.00;;;1.10;;
16977;SDS011;8605;52.548;4.918;2023-08-31T18:56:48;1.40;;;1.00;;
16977;SDS011;8605;52.548;4.918;2023-08-31T19:01:51;1.30;;;1.10;;
16977;SDS011;8605;52.548;4.918;2023-08-31T19:06:54;2.78;;;0.93;;
16977;SDS011;8605;52.548;4.918;2023-08-31T19:11:58;2.70;;;1.23;;
16977;SDS011;8605;52.548;4.918;2023-08-31T19:17:01;1.80;;;1.30;;
16977;SDS011;8605;52.548;4.918;2023-08-31T19:22:04;2.55;;;1.10;;
16977;SDS011;8605;52.548;4.918;2023-08-31T19:27:09;2.45;;;1.48;;
16977;SDS011;8605;52.548;4.918;2023-08-31T19:32:12;3.20;;;1.13;;
16977;SDS011;8605;52.548;4.918;2023-08-31T19:37:15;2.95;;;1.40;;
16977;SDS011;8605;52.548;4.918;2023-08-31T19:42:20;3.63;;;1.30;;
16977;SDS011;8605;52.548;4.918;2023-08-31T19:47:23;2.40;;;1.30;;
16977;SDS011;8605;52.548;4.918;2023-08-31T19:52:26;2.05;;;1.40;;
16977;SDS011;8605;52.548;4.918;2023-08-31T19:57:31;1.58;;;1.23;;
16977;SDS011;8605;52.548;4.918;2023-08-31T20:02:34;2.47;;;1.15;;
16977;SDS011;8605;52.548;4.918;2023-08-31T20:07:37;3.40;;;1.30;;
16977;SDS011;8605;52.548;4.918;2023-08-31T20:12:42;1.27;;;1.07;;
16977;SDS011;8605;52.548;4.918;2023-08-31T20:17:45;2.42;;;1.70;;
16977;SDS011;8605;52.548;4.918;2023-08-31T20:22:48;2.22;;;1.48;;
16977;SDS011;8605;52.548;4.918;2023-08-31T20:27:52;3.47;;;1.60;;
16977;SDS011;8605;52.548;4.918;2023-08-31T20:32:56;2.28;;;1.38;;
16977;SDS011;8605;52.548;4.918;2023-08-31T20:37:59;1.58;;;1.45;;
16977;SDS011;8605;52.548;4.918;2023-08-31T20:43:04;2.35;;;1.52;;
16977;SDS011;8605;52.548;4.918;2023-08-31T20:48:07;2.40;;;1.38;;
16977;SDS011;8605;52.548;4.918;2023-08-31T20:53:11;3.13;;;1.75;;
16977;SDS011;8605;52.548;4.918;2023-08-31T20:58:15;2.35;;;1.67;;
16977;SDS011;8605;52.548;4.918;2023-08-31T21:03:19;2.57;;;1.93;;
16977;SDS011;8605;52.548;4.918;2023-08-31T21:08:22;3.27;;;2.03;;
16977;SDS011;8605;52.548;4.918;2023-08-31T21:13:29;3.13;;;1.67;;
16977;SDS011;8605;52.548;4.918;2023-08-31T21:18:37;3.90;;;2.30;;
16977;SDS011;8605;52.548;4.918;2023-08-31T21:23:40;3.37;;;2.50;;
16977;SDS011;8605;52.548;4.918;2023-08-31T21:28:44;2.93;;;2.00;;
16977;SDS011;8605;52.548;4.918;2023-08-31T21:33:47;9.90;;;2.70;;
16977;SDS011;8605;52.548;4.918;2023-08-31T21:38:50;3.50;;;1.90;;
16977;SDS011;8605;52.548;4.918;2023-08-31T21:43:55;3.10;;;2.20;;
16977;SDS011;8605;52.548;4.918;2023-08-31T21:48:58;2.90;;;1.70;;
16977;SDS011;8605;52.548;4.918;2023-08-31T21:54:00;4.22;;;2.40;;
16977;SDS011;8605;52.548;4.918;2023-08-31T21:59:05;2.77;;;1.70;;
16977;SDS011;8605;52.548;4.918;2023-08-31T22:04:08;2.63;;;2.03;;
16977;SDS011;8605;52.548;4.918;2023-08-31T22:09:12;4.03;;;2.10;;
16977;SDS011;8605;52.548;4.918;2023-08-31T22:14:17;2.87;;;1.90;;
16977;SDS011;8605;52.548;4.918;2023-08-31T22:19:22;2.80;;;2.08;;
16977;SDS011;8605;52.548;4.918;2023-08-31T22:24:25;2.88;;;1.58;;
16977;SDS011;8605;52.548;4.918;2023-08-31T22:29:30;2.28;;;1.77;;
16977;SDS011;8605;52.548;4.918;2023-08-31T22:34:33;3.33;;;1.67;;
16977;SDS011;8605;52.548;4.918;2023-08-31T22:39:36;3.63;;;2.15;;
16977;SDS011;8605;52.548;4.918;2023-08-31T22:44:40;2.70;;;1.63;;
16977;SDS011;8605;52.548;4.918;2023-08-31T22:49:44;5.83;;;1.60;;
16977;SDS011;8605;52.548;4.918;2023-08-31T22:54:47;3.28;;;2.00;;
16977;SDS011;8605;52.548;4.918;2023-08-31T22:59:52;4.80;;;1.88;;
16977;SDS011;8605;52.548;4.918;2023-08-31T23:04:55;2.40;;;1.50;;
16977;SDS011;8605;52.548;4.918;2023-08-31T23:09:58;4.05;;;1.90;;
16977;SDS011;8605;52.548;4.918;2023-08-31T23:15:03;5.22;;;2.08;;
16977;SDS011;8605;52.548;4.918;2023-08-31T23:20:07;4.50;;;1.83;;
16977;SDS011;8605;52.548;4.918;2023-08-31T23:25:10;2.65;;;1.50;;
16977;SDS011;8605;52.548;4.918;2023-08-31T23:30:15;1.80;;;1.17;;
16977;SDS011;8605;52.548;4.918;2023-08-31T23:35:19;1.75;;;1.30;;
16977;SDS011;8605;52.548;4.918;2023-08-31T23:40:22;3.05;;;1.38;;
16977;SDS011;8605;52.548;4.918;2023-08-31T23:45:26;1.63;;;1.30;;
16977;SDS011;8605;52.548;4.918;2023-08-31T23:50:29;1.58;;;1.40;;
16977;SDS011;8605;52.548;4.918;2023-08-31T23:55:37;1.55;;;1.38;;
